sensor_id;sensor_type;location;lat;lon;timestamp;temperature;humidity
21047;DHT22;10682;50.874;3.656;2023-03-26T00:01:30;10.00;99.90
21047;DHT22;10682;50.874;3.656;2023-03-26T00:04:04;10.00;99.90
21047;DHT22;10682;50.874;3.656;2023-03-26T00:06:34;10.00;99.90
21047;DHT22;10682;50.874;3.656;2023-03-26T00:09:08;9.90;99.90
21047;DHT22;10682;50.874;3.656;2023-03-26T00:11:35;9.90;99.90
21047;DHT22;10682;50.874;3.656;2023-03-26T00:14:03;9.80;99.90
21047;DHT22;10682;50.874;3.656;2023-03-26T00:16:31;9.80;99.90
21047;DHT22;10682;50.874;3.656;2023-03-26T00:18:59;9.80;99.90
21047;DHT22;10682;50.874;3.656;2023-03-26T00:21:28;9.80;99.90
21047;DHT22;10682;50.874;3.656;2023-03-26T00:24:08;9.80;99.90
21047;DHT22;10682;50.874;3.656;2023-03-26T00:26:41;9.80;99.90
21047;DHT22;10682;50.874;3.656;2023-03-26T00:29:08;9.80;99.90
21047;DHT22;10682;50.874;3.656;2023-03-26T00:31:36;9.80;99.90
21047;DHT22;10682;50.874;3.656;2023-03-26T00:34:06;9.70;99.90
21047;DHT22;10682;50.874;3.656;2023-03-26T00:36:36;9.70;99.90
21047;DHT22;10682;50.874;3.656;2023-03-26T00:39:04;9.70;99.90
21047;DHT22;10682;50.874;3.656;2023-03-26T00:41:31;9.70;99.90
21047;DHT22;10682;50.874;3.656;2023-03-26T00:43:59;9.70;99.90
21047;DHT22;10682;50.874;3.656;2023-03-26T00:46:28;9.60;99.90
21047;DHT22;10682;50.874;3.656;2023-03-26T00:48:56;9.60;99.90
21047;DHT22;10682;50.874;3.656;2023-03-26T00:51:28;9.60;99.90
21047;DHT22;10682;50.874;3.656;2023-03-26T00:53:56;9.50;99.90
21047;DHT22;10682;50.874;3.656;2023-03-26T00:56:24;9.50;99.90
21047;DHT22;10682;50.874;3.656;2023-03-26T00:58:51;9.50;99.90
21047;DHT22;10682;50.874;3.656;2023-03-26T01:01:22;9.40;99.90
21047;DHT22;10682;50.874;3.656;2023-03-26T01:04:22;9.40;99.90
21047;DHT22;10682;50.874;3.656;2023-03-26T01:06:56;9.30;99.90
21047;DHT22;10682;50.874;3.656;2023-03-26T01:09:33;9.30;99.90
21047;DHT22;10682;50.874;3.656;2023-03-26T01:12:04;9.30;99.90
21047;DHT22;10682;50.874;3.656;2023-03-26T01:14:33;9.30;99.90
21047;DHT22;10682;50.874;3.656;2023-03-26T01:17:02;9.30;99.90
21047;DHT22;10682;50.874;3.656;2023-03-26T01:19:50;9.40;99.90
21047;DHT22;10682;50.874;3.656;2023-03-26T01:22:42;9.40;99.90
21047;DHT22;10682;50.874;3.656;2023-03-26T01:25:12;9.50;99.90
21047;DHT22;10682;50.874;3.656;2023-03-26T01:27:51;9.50;99.90
21047;DHT22;10682;50.874;3.656;2023-03-26T01:38:39;9.60;99.90
21047;DHT22;10682;50.874;3.656;2023-03-26T01:41:25;9.50;99.90
21047;DHT22;10682;50.874;3.656;2023-03-26T01:47:16;9.40;99.90
21047;DHT22;10682;50.874;3.656;2023-03-26T01:49:44;9.40;99.90
21047;DHT22;10682;50.874;3.656;2023-03-26T01:52:15;9.40;99.90
21047;DHT22;10682;50.874;3.656;2023-03-26T01:54:45;9.50;99.90
21047;DHT22;10682;50.874;3.656;2023-03-26T01:57:26;9.40;99.90
21047;DHT22;10682;50.874;3.656;2023-03-26T02:00:14;9.40;99.90
21047;DHT22;10682;50.874;3.656;2023-03-26T02:06:01;9.40;99.90
21047;DHT22;10682;50.874;3.656;2023-03-26T02:08:37;9.40;99.90
21047;DHT22;10682;50.874;3.656;2023-03-26T02:11:10;9.40;99.90
21047;DHT22;10682;50.874;3.656;2023-03-26T02:13:41;9.40;99.90
21047;DHT22;10682;50.874;3.656;2023-03-26T02:16:12;9.50;99.90
21047;DHT22;10682;50.874;3.656;2023-03-26T02:18:44;9.50;99.90
21047;DHT22;10682;50.874;3.656;2023-03-26T02:21:17;9.60;99.90
21047;DHT22;10682;50.874;3.656;2023-03-26T02:23:49;9.60;99.90
21047;DHT22;10682;50.874;3.656;2023-03-26T02:26:30;9.50;99.90
21047;DHT22;10682;50.874;3.656;2023-03-26T02:28:59;9.60;99.90
21047;DHT22;10682;50.874;3.656;2023-03-26T02:31:27;9.60;99.90
21047;DHT22;10682;50.874;3.656;2023-03-26T02:33:55;9.70;99.90
21047;DHT22;10682;50.874;3.656;2023-03-26T02:36:23;9.70;99.90
21047;DHT22;10682;50.874;3.656;2023-03-26T02:38:54;9.70;99.90
21047;DHT22;10682;50.874;3.656;2023-03-26T02:41:23;9.70;99.90
21047;DHT22;10682;50.874;3.656;2023-03-26T02:43:51;9.70;99.90
21047;DHT22;10682;50.874;3.656;2023-03-26T02:46:18;9.70;99.90
21047;DHT22;10682;50.874;3.656;2023-03-26T02:48:45;9.70;99.90
21047;DHT22;10682;50.874;3.656;2023-03-26T02:51:12;9.80;99.90
21047;DHT22;10682;50.874;3.656;2023-03-26T02:53:39;9.80;99.90
21047;DHT22;10682;50.874;3.656;2023-03-26T02:56:08;9.70;99.90
21047;DHT22;10682;50.874;3.656;2023-03-26T02:58:35;9.70;99.90
21047;DHT22;10682;50.874;3.656;2023-03-26T03:01:02;9.70;99.90
21047;DHT22;10682;50.874;3.656;2023-03-26T03:03:30;9.70;99.90
21047;DHT22;10682;50.874;3.656;2023-03-26T03:05:57;9.70;99.90
21047;DHT22;10682;50.874;3.656;2023-03-26T03:08:26;9.70;99.90
21047;DHT22;10682;50.874;3.656;2023-03-26T03:10:59;9.70;99.90
21047;DHT22;10682;50.874;3.656;2023-03-26T03:13:29;9.70;99.90
21047;DHT22;10682;50.874;3.656;2023-03-26T03:15:56;9.70;99.90
21047;DHT22;10682;50.874;3.656;2023-03-26T03:18:23;9.70;99.90
21047;DHT22;10682;50.874;3.656;2023-03-26T03:20:50;9.70;99.90
21047;DHT22;10682;50.874;3.656;2023-03-26T03:23:19;9.70;99.90
21047;DHT22;10682;50.874;3.656;2023-03-26T03:25:47;9.70;99.90
21047;DHT22;10682;50.874;3.656;2023-03-26T03:28:16;9.60;99.90
21047;DHT22;10682;50.874;3.656;2023-03-26T03:30:44;9.60;99.90
21047;DHT22;10682;50.874;3.656;2023-03-26T03:33:12;9.50;99.90
21047;DHT22;10682;50.874;3.656;2023-03-26T03:35:39;9.40;99.90
21047;DHT22;10682;50.874;3.656;2023-03-26T03:38:09;9.50;99.90
21047;DHT22;10682;50.874;3.656;2023-03-26T03:40:36;9.50;99.90
21047;DHT22;10682;50.874;3.656;2023-03-26T03:43:03;9.50;99.90
21047;DHT22;10682;50.874;3.656;2023-03-26T03:45:30;9.50;99.90
21047;DHT22;10682;50.874;3.656;2023-03-26T03:47:57;9.50;99.90
21047;DHT22;10682;50.874;3.656;2023-03-26T03:50:25;9.50;99.90
21047;DHT22;10682;50.874;3.656;2023-03-26T03:52:52;9.60;99.90
21047;DHT22;10682;50.874;3.656;2023-03-26T03:55:19;9.60;99.90
21047;DHT22;10682;50.874;3.656;2023-03-26T03:57:49;9.60;99.90
21047;DHT22;10682;50.874;3.656;2023-03-26T04:00:18;9.60;99.90
21047;DHT22;10682;50.874;3.656;2023-03-26T04:02:45;9.60;99.90
21047;DHT22;10682;50.874;3.656;2023-03-26T04:05:12;9.70;99.90
21047;DHT22;10682;50.874;3.656;2023-03-26T04:07:40;9.60;99.90
21047;DHT22;10682;50.874;3.656;2023-03-26T04:10:08;9.60;99.90
21047;DHT22;10682;50.874;3.656;2023-03-26T04:12:35;9.60;99.90
21047;DHT22;10682;50.874;3.656;2023-03-26T04:15:02;9.60;99.90
21047;DHT22;10682;50.874;3.656;2023-03-26T04:17:30;9.60;99.90
21047;DHT22;10682;50.874;3.656;2023-03-26T04:19:57;9.70;99.90
21047;DHT22;10682;50.874;3.656;2023-03-26T04:22:31;9.60;99.90
21047;DHT22;10682;50.874;3.656;2023-03-26T04:25:00;9.50;99.90
21047;DHT22;10682;50.874;3.656;2023-03-26T04:27:30;9.50;99.90
21047;DHT22;10682;50.874;3.656;2023-03-26T04:29:59;9.40;99.90
21047;DHT22;10682;50.874;3.656;2023-03-26T04:32:28;9.30;99.90
21047;DHT22;10682;50.874;3.656;2023-03-26T04:34:57;9.30;99.90
21047;DHT22;10682;50.874;3.656;2023-03-26T04:37:32;9.40;99.90
21047;DHT22;10682;50.874;3.656;2023-03-26T04:40:02;9.40;99.90
21047;DHT22;10682;50.874;3.656;2023-03-26T04:42:35;9.50;99.90
21047;DHT22;10682;50.874;3.656;2023-03-26T04:45:07;9.50;99.90
21047;DHT22;10682;50.874;3.656;2023-03-26T04:47:36;9.60;99.90
21047;DHT22;10682;50.874;3.656;2023-03-26T04:50:06;9.60;99.90
21047;DHT22;10682;50.874;3.656;2023-03-26T04:52:35;9.50;99.90
21047;DHT22;10682;50.874;3.656;2023-03-26T04:55:05;9.50;99.90
21047;DHT22;10682;50.874;3.656;2023-03-26T04:57:37;9.50;99.90
21047;DHT22;10682;50.874;3.656;2023-03-26T05:00:06;9.50;99.90
21047;DHT22;10682;50.874;3.656;2023-03-26T05:02:45;9.50;99.90
21047;DHT22;10682;50.874;3.656;2023-03-26T05:05:16;9.50;99.90
21047;DHT22;10682;50.874;3.656;2023-03-26T05:07:44;9.50;99.90
21047;DHT22;10682;50.874;3.656;2023-03-26T05:10:13;9.40;99.90
21047;DHT22;10682;50.874;3.656;2023-03-26T05:12:41;9.30;99.90
21047;DHT22;10682;50.874;3.656;2023-03-26T05:15:10;9.20;99.90
21047;DHT22;10682;50.874;3.656;2023-03-26T05:17:38;9.10;99.90
21047;DHT22;10682;50.874;3.656;2023-03-26T05:20:21;9.10;99.90
21047;DHT22;10682;50.874;3.656;2023-03-26T05:22:49;9.10;99.90
21047;DHT22;10682;50.874;3.656;2023-03-26T05:25:17;9.10;99.90
21047;DHT22;10682;50.874;3.656;2023-03-26T05:27:45;9.00;99.90
21047;DHT22;10682;50.874;3.656;2023-03-26T05:30:14;9.00;99.90
21047;DHT22;10682;50.874;3.656;2023-03-26T05:32:43;8.90;99.90
21047;DHT22;10682;50.874;3.656;2023-03-26T05:35:11;8.90;99.90
21047;DHT22;10682;50.874;3.656;2023-03-26T05:37:38;8.90;99.90
21047;DHT22;10682;50.874;3.656;2023-03-26T05:40:06;8.90;99.90
21047;DHT22;10682;50.874;3.656;2023-03-26T05:42:38;8.80;99.90
21047;DHT22;10682;50.874;3.656;2023-03-26T05:45:06;8.80;99.90
21047;DHT22;10682;50.874;3.656;2023-03-26T05:47:34;8.70;99.90
21047;DHT22;10682;50.874;3.656;2023-03-26T05:50:04;8.60;99.90
21047;DHT22;10682;50.874;3.656;2023-03-26T05:52:31;8.50;99.90
21047;DHT22;10682;50.874;3.656;2023-03-26T05:54:59;8.40;99.90
21047;DHT22;10682;50.874;3.656;2023-03-26T05:57:29;8.40;99.90
21047;DHT22;10682;50.874;3.656;2023-03-26T05:59:56;8.30;99.90
21047;DHT22;10682;50.874;3.656;2023-03-26T06:02:23;8.30;99.90
21047;DHT22;10682;50.874;3.656;2023-03-26T06:04:50;8.30;99.90
21047;DHT22;10682;50.874;3.656;2023-03-26T06:07:18;8.20;99.90
21047;DHT22;10682;50.874;3.656;2023-03-26T06:09:46;8.20;99.90
21047;DHT22;10682;50.874;3.656;2023-03-26T06:12:14;8.30;99.90
21047;DHT22;10682;50.874;3.656;2023-03-26T06:14:41;8.20;99.90
21047;DHT22;10682;50.874;3.656;2023-03-26T06:17:09;8.10;99.90
21047;DHT22;10682;50.874;3.656;2023-03-26T06:19:36;8.10;99.90
21047;DHT22;10682;50.874;3.656;2023-03-26T06:22:04;8.10;99.90
21047;DHT22;10682;50.874;3.656;2023-03-26T06:24:32;8.10;99.90
21047;DHT22;10682;50.874;3.656;2023-03-26T06:27:00;8.10;99.90
21047;DHT22;10682;50.874;3.656;2023-03-26T06:29:27;8.10;99.90
21047;DHT22;10682;50.874;3.656;2023-03-26T06:31:54;8.00;99.90
21047;DHT22;10682;50.874;3.656;2023-03-26T06:34:27;8.00;99.90
21047;DHT22;10682;50.874;3.656;2023-03-26T06:36:54;8.00;99.90
21047;DHT22;10682;50.874;3.656;2023-03-26T06:39:20;7.90;99.90
21047;DHT22;10682;50.874;3.656;2023-03-26T06:41:48;7.90;99.90
21047;DHT22;10682;50.874;3.656;2023-03-26T06:44:16;7.90;99.90
21047;DHT22;10682;50.874;3.656;2023-03-26T06:46:43;7.80;99.90
21047;DHT22;10682;50.874;3.656;2023-03-26T06:49:10;7.80;99.90
21047;DHT22;10682;50.874;3.656;2023-03-26T06:51:37;7.80;99.90
21047;DHT22;10682;50.874;3.656;2023-03-26T06:54:06;7.80;99.90
21047;DHT22;10682;50.874;3.656;2023-03-26T06:56:33;7.70;99.90
21047;DHT22;10682;50.874;3.656;2023-03-26T06:59:00;7.80;99.90
21047;DHT22;10682;50.874;3.656;2023-03-26T07:01:27;7.70;99.90
21047;DHT22;10682;50.874;3.656;2023-03-26T07:03:54;7.70;99.90
21047;DHT22;10682;50.874;3.656;2023-03-26T07:06:27;7.70;99.90
21047;DHT22;10682;50.874;3.656;2023-03-26T07:08:54;7.70;99.90
21047;DHT22;10682;50.874;3.656;2023-03-26T07:11:23;7.70;99.90
21047;DHT22;10682;50.874;3.656;2023-03-26T07:13:51;7.70;99.90
21047;DHT22;10682;50.874;3.656;2023-03-26T07:16:18;7.60;99.90
21047;DHT22;10682;50.874;3.656;2023-03-26T07:18:45;7.60;99.90
21047;DHT22;10682;50.874;3.656;2023-03-26T07:21:13;7.60;99.90
21047;DHT22;10682;50.874;3.656;2023-03-26T07:23:41;7.50;99.90
21047;DHT22;10682;50.874;3.656;2023-03-26T07:27:01;7.50;99.90
21047;DHT22;10682;50.874;3.656;2023-03-26T07:29:44;7.50;99.90
21047;DHT22;10682;50.874;3.656;2023-03-26T07:35:29;7.40;99.90
21047;DHT22;10682;50.874;3.656;2023-03-26T07:38:15;7.30;99.90
21047;DHT22;10682;50.874;3.656;2023-03-26T07:47:22;7.40;99.90
21047;DHT22;10682;50.874;3.656;2023-03-26T07:49:58;7.40;99.90
21047;DHT22;10682;50.874;3.656;2023-03-26T07:52:25;7.40;99.90
21047;DHT22;10682;50.874;3.656;2023-03-26T07:54:54;7.40;99.90
21047;DHT22;10682;50.874;3.656;2023-03-26T08:00:16;7.50;99.90
21047;DHT22;10682;50.874;3.656;2023-03-26T08:06:04;7.60;99.90
21047;DHT22;10682;50.874;3.656;2023-03-26T08:21:16;7.70;99.90
21047;DHT22;10682;50.874;3.656;2023-03-26T08:23:57;7.70;99.90
21047;DHT22;10682;50.874;3.656;2023-03-26T08:26:32;7.70;99.90
21047;DHT22;10682;50.874;3.656;2023-03-26T08:29:24;7.70;99.90
21047;DHT22;10682;50.874;3.656;2023-03-26T08:32:00;7.70;99.90
21047;DHT22;10682;50.874;3.656;2023-03-26T08:34:30;7.70;99.90
21047;DHT22;10682;50.874;3.656;2023-03-26T08:36:57;7.80;99.90
21047;DHT22;10682;50.874;3.656;2023-03-26T08:39:24;7.80;99.90
21047;DHT22;10682;50.874;3.656;2023-03-26T08:45:15;7.70;99.90
21047;DHT22;10682;50.874;3.656;2023-03-26T08:48:55;7.80;99.90
21047;DHT22;10682;50.874;3.656;2023-03-26T09:15:46;8.10;99.90
21047;DHT22;10682;50.874;3.656;2023-03-26T09:18:55;8.10;99.90
21047;DHT22;10682;50.874;3.656;2023-03-26T09:24:50;8.10;99.90
21047;DHT22;10682;50.874;3.656;2023-03-26T09:36:45;8.30;99.90
21047;DHT22;10682;50.874;3.656;2023-03-26T09:40:15;8.30;99.90
21047;DHT22;10682;50.874;3.656;2023-03-26T09:42:52;8.30;99.90
21047;DHT22;10682;50.874;3.656;2023-03-26T09:48:34;8.30;99.90
21047;DHT22;10682;50.874;3.656;2023-03-26T09:57:56;8.40;99.90
21047;DHT22;10682;50.874;3.656;2023-03-26T10:01:21;8.40;99.90
21047;DHT22;10682;50.874;3.656;2023-03-26T10:09:39;8.30;99.90
21047;DHT22;10682;50.874;3.656;2023-03-26T10:28:25;8.40;99.90
21047;DHT22;10682;50.874;3.656;2023-03-26T10:37:30;8.60;99.90
21047;DHT22;10682;50.874;3.656;2023-03-26T10:43:19;8.70;99.90
21047;DHT22;10682;50.874;3.656;2023-03-26T10:46:03;8.70;99.90
21047;DHT22;10682;50.874;3.656;2023-03-26T10:51:45;8.80;99.90
21047;DHT22;10682;50.874;3.656;2023-03-26T10:57:42;8.80;99.90
21047;DHT22;10682;50.874;3.656;2023-03-26T11:00:16;8.90;99.90
21047;DHT22;10682;50.874;3.656;2023-03-26T11:08:59;9.20;99.90
21047;DHT22;10682;50.874;3.656;2023-03-26T11:11:50;9.20;99.90
21047;DHT22;10682;50.874;3.656;2023-03-26T11:14:31;9.40;99.90
21047;DHT22;10682;50.874;3.656;2023-03-26T11:26:13;9.70;99.90
21047;DHT22;10682;50.874;3.656;2023-03-26T11:28:52;9.80;99.90
21047;DHT22;10682;50.874;3.656;2023-03-26T11:31:39;10.00;99.90
21047;DHT22;10682;50.874;3.656;2023-03-26T11:34:19;10.10;99.90
21047;DHT22;10682;50.874;3.656;2023-03-26T11:36:53;10.10;99.90
21047;DHT22;10682;50.874;3.656;2023-03-26T11:39:26;10.00;99.90
21047;DHT22;10682;50.874;3.656;2023-03-26T11:42:10;10.10;99.90
21047;DHT22;10682;50.874;3.656;2023-03-26T11:44:53;10.10;99.90
21047;DHT22;10682;50.874;3.656;2023-03-26T11:47:28;10.00;99.90
21047;DHT22;10682;50.874;3.656;2023-03-26T11:50:15;10.00;99.90
21047;DHT22;10682;50.874;3.656;2023-03-26T11:53:10;10.00;99.90
21047;DHT22;10682;50.874;3.656;2023-03-26T11:55:42;10.10;99.90
21047;DHT22;10682;50.874;3.656;2023-03-26T11:58:33;10.10;99.90
21047;DHT22;10682;50.874;3.656;2023-03-26T12:01:20;10.10;99.90
21047;DHT22;10682;50.874;3.656;2023-03-26T12:04:02;10.00;99.90
21047;DHT22;10682;50.874;3.656;2023-03-26T12:06:31;10.10;99.90
21047;DHT22;10682;50.874;3.656;2023-03-26T12:08:58;10.00;99.90
21047;DHT22;10682;50.874;3.656;2023-03-26T12:11:28;9.90;99.90
21047;DHT22;10682;50.874;3.656;2023-03-26T12:14:02;9.80;99.90
21047;DHT22;10682;50.874;3.656;2023-03-26T12:16:30;9.80;99.90
21047;DHT22;10682;50.874;3.656;2023-03-26T12:19:03;9.80;99.90
21047;DHT22;10682;50.874;3.656;2023-03-26T12:21:48;9.70;99.90
21047;DHT22;10682;50.874;3.656;2023-03-26T12:29:51;9.50;99.90
21047;DHT22;10682;50.874;3.656;2023-03-26T12:32:20;9.60;99.90
21047;DHT22;10682;50.874;3.656;2023-03-26T12:34:51;9.60;99.90
21047;DHT22;10682;50.874;3.656;2023-03-26T12:37:36;9.50;99.90
21047;DHT22;10682;50.874;3.656;2023-03-26T12:43:01;9.90;99.90
21047;DHT22;10682;50.874;3.656;2023-03-26T12:45:53;10.00;99.90
21047;DHT22;10682;50.874;3.656;2023-03-26T12:48:41;10.00;99.90
21047;DHT22;10682;50.874;3.656;2023-03-26T13:03:34;10.00;99.90
21047;DHT22;10682;50.874;3.656;2023-03-26T13:06:48;10.00;99.90
21047;DHT22;10682;50.874;3.656;2023-03-26T13:09:48;9.90;99.90
21047;DHT22;10682;50.874;3.656;2023-03-26T13:15:49;9.70;99.90
21047;DHT22;10682;50.874;3.656;2023-03-26T13:18:41;9.70;99.90
21047;DHT22;10682;50.874;3.656;2023-03-26T13:24:40;9.80;99.90
21047;DHT22;10682;50.874;3.656;2023-03-26T13:27:20;9.70;99.90
21047;DHT22;10682;50.874;3.656;2023-03-26T13:29:56;9.70;99.90
21047;DHT22;10682;50.874;3.656;2023-03-26T13:41:26;9.90;99.90
21047;DHT22;10682;50.874;3.656;2023-03-26T13:46:41;9.60;99.90
21047;DHT22;10682;50.874;3.656;2023-03-26T13:49:32;9.50;99.90
21047;DHT22;10682;50.874;3.656;2023-03-26T13:52:20;9.40;99.90
21047;DHT22;10682;50.874;3.656;2023-03-26T13:55:31;9.40;99.90
21047;DHT22;10682;50.874;3.656;2023-03-26T14:01:06;9.50;99.90
21047;DHT22;10682;50.874;3.656;2023-03-26T14:06:40;9.50;99.90
21047;DHT22;10682;50.874;3.656;2023-03-26T14:09:35;9.50;99.90
21047;DHT22;10682;50.874;3.656;2023-03-26T14:17:51;9.50;99.90
21047;DHT22;10682;50.874;3.656;2023-03-26T14:26:17;9.40;99.90
21047;DHT22;10682;50.874;3.656;2023-03-26T14:47:03;9.80;99.90
21047;DHT22;10682;50.874;3.656;2023-03-26T14:53:29;9.70;99.90
21047;DHT22;10682;50.874;3.656;2023-03-26T14:59:15;9.70;99.90
21047;DHT22;10682;50.874;3.656;2023-03-26T15:02:10;9.80;99.90
21047;DHT22;10682;50.874;3.656;2023-03-26T15:08:11;9.70;99.90
21047;DHT22;10682;50.874;3.656;2023-03-26T15:14:41;9.50;99.90
21047;DHT22;10682;50.874;3.656;2023-03-26T15:30:10;9.60;99.90
21047;DHT22;10682;50.874;3.656;2023-03-26T15:35:57;9.50;99.90
21047;DHT22;10682;50.874;3.656;2023-03-26T15:47:36;9.40;99.90
21047;DHT22;10682;50.874;3.656;2023-03-26T15:58:52;9.00;99.90
21047;DHT22;10682;50.874;3.656;2023-03-26T16:10:32;8.90;99.90
21047;DHT22;10682;50.874;3.656;2023-03-26T16:16:47;8.90;99.90
21047;DHT22;10682;50.874;3.656;2023-03-26T16:21:54;8.70;99.90
21047;DHT22;10682;50.874;3.656;2023-03-26T16:24:27;8.60;99.90
21047;DHT22;10682;50.874;3.656;2023-03-26T16:27:00;8.50;99.90
21047;DHT22;10682;50.874;3.656;2023-03-26T16:30:12;8.50;99.90
21047;DHT22;10682;50.874;3.656;2023-03-26T16:33:31;8.50;99.90
21047;DHT22;10682;50.874;3.656;2023-03-26T16:38:54;8.40;99.90
21047;DHT22;10682;50.874;3.656;2023-03-26T16:52:57;8.20;99.90
21047;DHT22;10682;50.874;3.656;2023-03-26T16:55:45;8.20;99.90
21047;DHT22;10682;50.874;3.656;2023-03-26T16:58:43;8.20;99.90
21047;DHT22;10682;50.874;3.656;2023-03-26T17:04:02;8.00;99.90
21047;DHT22;10682;50.874;3.656;2023-03-26T17:09:52;8.00;99.90
21047;DHT22;10682;50.874;3.656;2023-03-26T17:12:59;8.00;99.90
21047;DHT22;10682;50.874;3.656;2023-03-26T17:21:30;7.80;99.90
21047;DHT22;10682;50.874;3.656;2023-03-26T17:25:01;7.70;99.90
21047;DHT22;10682;50.874;3.656;2023-03-26T17:33:21;7.60;99.90
21047;DHT22;10682;50.874;3.656;2023-03-26T17:41:06;7.50;99.90
21047;DHT22;10682;50.874;3.656;2023-03-26T17:43:47;7.50;99.90
21047;DHT22;10682;50.874;3.656;2023-03-26T17:46:38;7.40;99.90
21047;DHT22;10682;50.874;3.656;2023-03-26T17:49:19;7.40;99.90
21047;DHT22;10682;50.874;3.656;2023-03-26T17:51:59;7.30;99.90
21047;DHT22;10682;50.874;3.656;2023-03-26T17:54:45;7.30;99.90
21047;DHT22;10682;50.874;3.656;2023-03-26T17:57:26;7.30;99.90
21047;DHT22;10682;50.874;3.656;2023-03-26T17:59:58;7.30;99.90
21047;DHT22;10682;50.874;3.656;2023-03-26T18:02:38;7.20;99.90
21047;DHT22;10682;50.874;3.656;2023-03-26T18:05:11;7.20;99.90
21047;DHT22;10682;50.874;3.656;2023-03-26T18:14:04;7.10;99.90
21047;DHT22;10682;50.874;3.656;2023-03-26T18:16:51;7.00;99.90
21047;DHT22;10682;50.874;3.656;2023-03-26T18:19:21;7.00;99.90
21047;DHT22;10682;50.874;3.656;2023-03-26T18:21:51;7.00;99.90
21047;DHT22;10682;50.874;3.656;2023-03-26T18:24:31;7.00;99.90
21047;DHT22;10682;50.874;3.656;2023-03-26T18:27:18;7.00;99.90
21047;DHT22;10682;50.874;3.656;2023-03-26T18:32:30;7.00;99.90
21047;DHT22;10682;50.874;3.656;2023-03-26T18:35:10;7.00;99.90
21047;DHT22;10682;50.874;3.656;2023-03-26T18:37:40;7.00;99.90
21047;DHT22;10682;50.874;3.656;2023-03-26T18:40:14;7.00;99.90
21047;DHT22;10682;50.874;3.656;2023-03-26T18:42:46;7.00;99.90
21047;DHT22;10682;50.874;3.656;2023-03-26T18:45:30;7.00;99.90
21047;DHT22;10682;50.874;3.656;2023-03-26T18:48:02;7.00;99.90
21047;DHT22;10682;50.874;3.656;2023-03-26T18:50:33;6.90;99.90
21047;DHT22;10682;50.874;3.656;2023-03-26T18:53:05;6.90;99.90
21047;DHT22;10682;50.874;3.656;2023-03-26T18:55:43;6.90;99.90
21047;DHT22;10682;50.874;3.656;2023-03-26T18:58:32;6.90;99.90
21047;DHT22;10682;50.874;3.656;2023-03-26T19:01:07;7.00;99.90
21047;DHT22;10682;50.874;3.656;2023-03-26T19:03:49;6.90;99.90
21047;DHT22;10682;50.874;3.656;2023-03-26T19:06:17;6.90;99.90
21047;DHT22;10682;50.874;3.656;2023-03-26T19:08:46;6.90;99.90
21047;DHT22;10682;50.874;3.656;2023-03-26T19:11:15;6.80;99.90
21047;DHT22;10682;50.874;3.656;2023-03-26T19:13:43;6.80;99.90
21047;DHT22;10682;50.874;3.656;2023-03-26T19:16:22;6.80;99.90
21047;DHT22;10682;50.874;3.656;2023-03-26T19:18:51;6.80;99.90
21047;DHT22;10682;50.874;3.656;2023-03-26T19:21:19;6.80;99.90
21047;DHT22;10682;50.874;3.656;2023-03-26T19:23:50;6.70;99.90
21047;DHT22;10682;50.874;3.656;2023-03-26T19:26:18;6.70;99.90
21047;DHT22;10682;50.874;3.656;2023-03-26T19:28:50;6.70;99.90
21047;DHT22;10682;50.874;3.656;2023-03-26T19:36:54;6.60;99.90
21047;DHT22;10682;50.874;3.656;2023-03-26T19:39:46;6.60;99.90
21047;DHT22;10682;50.874;3.656;2023-03-26T19:42:25;6.60;99.90
21047;DHT22;10682;50.874;3.656;2023-03-26T19:45:20;6.60;99.90
21047;DHT22;10682;50.874;3.656;2023-03-26T19:47:49;6.60;99.90
21047;DHT22;10682;50.874;3.656;2023-03-26T19:50:41;6.60;99.90
21047;DHT22;10682;50.874;3.656;2023-03-26T19:58:37;6.60;99.90
21047;DHT22;10682;50.874;3.656;2023-03-26T20:01:21;6.60;99.90
21047;DHT22;10682;50.874;3.656;2023-03-26T20:03:53;6.60;99.90
21047;DHT22;10682;50.874;3.656;2023-03-26T20:06:24;6.60;99.90
21047;DHT22;10682;50.874;3.656;2023-03-26T20:09:14;6.60;99.90
21047;DHT22;10682;50.874;3.656;2023-03-26T20:11:42;6.60;99.90
21047;DHT22;10682;50.874;3.656;2023-03-26T20:16:39;6.60;99.90
21047;DHT22;10682;50.874;3.656;2023-03-26T20:19:09;6.60;99.90
21047;DHT22;10682;50.874;3.656;2023-03-26T20:21:36;6.60;99.90
21047;DHT22;10682;50.874;3.656;2023-03-26T20:24:10;6.50;99.90
21047;DHT22;10682;50.874;3.656;2023-03-26T20:26:41;6.50;99.90
21047;DHT22;10682;50.874;3.656;2023-03-26T20:29:08;6.40;99.90
21047;DHT22;10682;50.874;3.656;2023-03-26T20:31:35;6.30;99.90
21047;DHT22;10682;50.874;3.656;2023-03-26T20:34:12;6.20;99.90
21047;DHT22;10682;50.874;3.656;2023-03-26T20:36:45;6.10;99.90
21047;DHT22;10682;50.874;3.656;2023-03-26T20:39:12;6.10;99.90
21047;DHT22;10682;50.874;3.656;2023-03-26T20:41:43;5.90;99.90
21047;DHT22;10682;50.874;3.656;2023-03-26T20:44:14;5.90;99.90
21047;DHT22;10682;50.874;3.656;2023-03-26T20:46:44;5.90;99.90
21047;DHT22;10682;50.874;3.656;2023-03-26T20:49:12;5.90;99.90
21047;DHT22;10682;50.874;3.656;2023-03-26T20:51:40;5.90;99.90
21047;DHT22;10682;50.874;3.656;2023-03-26T20:54:16;5.90;99.90
21047;DHT22;10682;50.874;3.656;2023-03-26T20:56:47;6.00;99.90
21047;DHT22;10682;50.874;3.656;2023-03-26T20:59:23;6.10;99.90
21047;DHT22;10682;50.874;3.656;2023-03-26T21:01:55;6.00;99.90
21047;DHT22;10682;50.874;3.656;2023-03-26T21:04:24;6.10;99.90
21047;DHT22;10682;50.874;3.656;2023-03-26T21:06:52;6.10;99.90
21047;DHT22;10682;50.874;3.656;2023-03-26T21:09:32;6.00;99.90
21047;DHT22;10682;50.874;3.656;2023-03-26T21:12:08;6.10;99.90
21047;DHT22;10682;50.874;3.656;2023-03-26T21:14:42;6.00;99.90
21047;DHT22;10682;50.874;3.656;2023-03-26T21:17:15;6.00;99.90
21047;DHT22;10682;50.874;3.656;2023-03-26T21:19:44;6.00;99.90
21047;DHT22;10682;50.874;3.656;2023-03-26T21:28:20;5.90;99.90
21047;DHT22;10682;50.874;3.656;2023-03-26T21:31:01;5.90;99.90
21047;DHT22;10682;50.874;3.656;2023-03-26T21:33:30;5.90;99.90
21047;DHT22;10682;50.874;3.656;2023-03-26T21:35:58;5.90;99.90
21047;DHT22;10682;50.874;3.656;2023-03-26T21:38:26;5.90;99.90
21047;DHT22;10682;50.874;3.656;2023-03-26T21:40:54;6.00;99.90
21047;DHT22;10682;50.874;3.656;2023-03-26T21:43:24;6.00;99.90
21047;DHT22;10682;50.874;3.656;2023-03-26T21:45:52;6.00;99.90
21047;DHT22;10682;50.874;3.656;2023-03-26T21:48:20;6.00;99.90
21047;DHT22;10682;50.874;3.656;2023-03-26T21:50:48;6.00;99.90
21047;DHT22;10682;50.874;3.656;2023-03-26T21:53:15;5.90;99.90
21047;DHT22;10682;50.874;3.656;2023-03-26T21:58:58;5.90;99.90
21047;DHT22;10682;50.874;3.656;2023-03-26T22:01:52;5.90;99.90
21047;DHT22;10682;50.874;3.656;2023-03-26T22:07:19;5.80;99.90
21047;DHT22;10682;50.874;3.656;2023-03-26T22:09:49;5.80;99.90
21047;DHT22;10682;50.874;3.656;2023-03-26T22:12:17;5.70;99.90
21047;DHT22;10682;50.874;3.656;2023-03-26T22:14:44;5.70;99.90
21047;DHT22;10682;50.874;3.656;2023-03-26T22:17:11;5.60;99.90
21047;DHT22;10682;50.874;3.656;2023-03-26T22:19:38;5.60;99.90
21047;DHT22;10682;50.874;3.656;2023-03-26T22:22:07;5.60;99.90
21047;DHT22;10682;50.874;3.656;2023-03-26T22:24:34;5.60;99.90
21047;DHT22;10682;50.874;3.656;2023-03-26T22:27:01;5.50;99.90